createdAt,value
2019-02-10T00:02:00.542Z,1.10
2019-02-10T00:04:29.902Z,1.10
2019-02-10T00:06:59.234Z,1.00
2019-02-10T00:09:28.606Z,1.00
2019-02-10T00:11:58.049Z,1.00
2019-02-10T00:14:27.420Z,1.00
2019-02-10T00:16:56.765Z,1.00
2019-02-10T00:19:26.172Z,1.00
2019-02-10T00:21:55.660Z,1.00
2019-02-10T00:24:25.101Z,1.00
2019-02-10T00:26:54.564Z,1.00
2019-02-10T00:29:23.990Z,1.00
2019-02-10T00:31:53.441Z,1.10
2019-02-10T00:34:22.817Z,1.00
2019-02-10T00:36:52.202Z,1.00
2019-02-10T00:39:21.597Z,1.00
2019-02-10T00:41:50.966Z,1.00
2019-02-10T00:44:20.301Z,1.00
2019-02-10T00:46:49.724Z,1.00
2019-02-10T00:49:19.118Z,1.00
2019-02-10T00:51:48.493Z,1.00
2019-02-10T00:54:17.844Z,1.00
2019-02-10T00:56:47.239Z,1.00
2019-02-10T00:59:16.698Z,1.00
2019-02-10T01:01:46.101Z,0.90
2019-02-10T01:04:15.511Z,0.90
2019-02-10T01:06:44.859Z,0.90
2019-02-10T01:09:14.233Z,0.90
2019-02-10T01:11:43.556Z,0.90
2019-02-10T01:14:12.930Z,0.90
2019-02-10T01:16:42.329Z,0.90
2019-02-10T01:19:12.221Z,0.90
2019-02-10T01:21:43.227Z,0.90
2019-02-10T01:24:12.695Z,0.90
2019-02-10T01:26:42.103Z,0.90
2019-02-10T01:29:11.473Z,0.90
2019-02-10T01:31:40.921Z,0.80
2019-02-10T01:34:11.080Z,0.80
2019-02-10T01:36:40.425Z,0.80
2019-02-10T01:39:19.889Z,0.80
2019-02-10T01:41:49.323Z,0.80
2019-02-10T01:44:19.199Z,0.80
2019-02-10T01:46:48.574Z,0.80
2019-02-10T01:49:17.961Z,0.80
2019-02-10T01:51:47.327Z,0.80
2019-02-10T01:54:16.784Z,0.80
2019-02-10T01:56:46.196Z,0.80
2019-02-10T01:59:15.589Z,0.80
2019-02-10T02:01:44.928Z,0.80
2019-02-10T02:04:14.408Z,0.80
2019-02-10T02:06:43.809Z,0.70
2019-02-10T02:09:15.085Z,0.70
2019-02-10T02:11:44.434Z,0.70
2019-02-10T02:14:13.805Z,0.70
2019-02-10T02:16:43.140Z,0.70
2019-02-10T02:19:13.105Z,0.60
2019-02-10T02:21:42.499Z,0.60
2019-02-10T02:24:11.909Z,0.60
2019-02-10T02:26:41.251Z,0.60
2019-02-10T02:29:10.632Z,0.60
2019-02-10T02:31:39.971Z,0.60
2019-02-10T02:34:09.414Z,0.60
2019-02-10T02:36:45.098Z,0.60
2019-02-10T02:39:14.607Z,0.50
2019-02-10T02:41:43.950Z,0.50
2019-02-10T02:44:13.391Z,0.50
2019-02-10T02:46:42.855Z,0.50
2019-02-10T02:49:12.612Z,0.40
2019-02-10T02:51:42.013Z,0.30
2019-02-10T02:54:11.449Z,0.30
2019-02-10T02:56:40.877Z,0.30
2019-02-10T02:59:10.333Z,0.30
2019-02-10T03:01:39.734Z,0.30
2019-02-10T03:04:09.093Z,0.30
2019-02-10T03:06:48.223Z,0.30
2019-02-10T03:09:17.784Z,0.30
2019-02-10T03:11:47.121Z,0.20
2019-02-10T03:14:16.593Z,0.30
2019-02-10T03:16:46.008Z,0.30
2019-02-10T03:19:15.455Z,0.20
2019-02-10T03:21:44.915Z,0.20
2019-02-10T03:24:14.415Z,0.20
2019-02-10T03:26:43.816Z,0.20
2019-02-10T03:29:13.237Z,0.20
2019-02-10T03:31:42.650Z,0.20
2019-02-10T03:34:12.081Z,0.20
2019-02-10T03:36:41.527Z,0.20
2019-02-10T03:39:10.986Z,0.20
2019-02-10T03:41:40.405Z,0.20
2019-02-10T03:44:09.830Z,0.20
2019-02-10T03:46:39.142Z,0.30
2019-02-10T03:49:08.531Z,0.30
2019-02-10T03:51:37.857Z,0.30
2019-02-10T03:54:07.218Z,0.30
2019-02-10T03:56:36.597Z,0.30
2019-02-10T03:59:05.970Z,0.40
2019-02-10T04:01:35.353Z,0.40
2019-02-10T04:04:05.042Z,0.40
2019-02-10T04:06:34.430Z,0.40
2019-02-10T04:09:05.262Z,0.40
2019-02-10T04:11:34.648Z,0.40
2019-02-10T04:14:04.194Z,0.40
2019-02-10T04:16:33.597Z,0.40
2019-02-10T04:19:03.020Z,0.40
2019-02-10T04:21:32.387Z,0.40
2019-02-10T04:24:03.312Z,0.50
2019-02-10T04:26:32.619Z,0.50
2019-02-10T04:29:02.426Z,0.50
2019-02-10T04:31:31.731Z,0.50
2019-02-10T04:34:01.049Z,0.50
2019-02-10T04:36:30.497Z,0.50
2019-02-10T04:38:59.840Z,0.50
2019-02-10T04:41:29.216Z,0.50
2019-02-10T04:43:58.570Z,0.50
2019-02-10T04:46:27.996Z,0.50
2019-02-10T04:48:57.431Z,0.50
2019-02-10T04:51:26.866Z,0.50
2019-02-10T04:53:56.194Z,0.50
2019-02-10T04:56:25.641Z,0.50
2019-02-10T04:58:55.043Z,0.50
2019-02-10T05:01:24.464Z,0.50
2019-02-10T05:03:53.863Z,0.50
2019-02-10T05:06:23.222Z,0.50
2019-02-10T05:08:52.553Z,0.50
2019-02-10T05:11:22.032Z,0.50
2019-02-10T05:13:51.442Z,0.50
2019-02-10T05:16:20.937Z,0.50
2019-02-10T05:18:50.360Z,0.50
2019-02-10T05:21:19.808Z,0.50
2019-02-10T05:23:49.198Z,0.50
2019-02-10T05:26:18.590Z,0.50
2019-02-10T05:28:48.049Z,0.60
2019-02-10T05:31:17.443Z,0.60
2019-02-10T05:33:46.892Z,0.60
2019-02-10T05:36:16.307Z,0.60
2019-02-10T05:38:45.726Z,0.60
2019-02-10T05:41:15.096Z,0.50
2019-02-10T05:43:44.480Z,0.60
2019-02-10T05:46:13.866Z,0.60
2019-02-10T05:48:43.204Z,0.50
2019-02-10T05:51:12.658Z,0.50
2019-02-10T05:53:42.011Z,0.50
2019-02-10T05:56:11.445Z,0.50
2019-02-10T05:58:40.870Z,0.50
2019-02-10T06:01:46.176Z,0.50
2019-02-10T06:04:15.592Z,0.40
2019-02-10T06:06:44.971Z,0.40
2019-02-10T06:09:14.361Z,0.40
2019-02-10T06:11:43.738Z,0.40
2019-02-10T06:14:13.061Z,0.40
2019-02-10T06:16:42.416Z,0.40
2019-02-10T06:19:18.654Z,0.30
2019-02-10T06:21:48.230Z,0.30
2019-02-10T06:24:17.960Z,0.30
2019-02-10T06:26:47.603Z,0.30
2019-02-10T06:29:17.225Z,0.30
2019-02-10T06:31:46.764Z,0.30
2019-02-10T06:34:16.236Z,0.30
2019-02-10T06:36:45.755Z,0.30
2019-02-10T06:39:15.218Z,0.30
2019-02-10T06:41:44.710Z,0.30
2019-02-10T06:44:14.124Z,0.30
2019-02-10T06:46:43.495Z,0.30
2019-02-10T06:49:12.892Z,0.30
2019-02-10T06:51:42.362Z,0.30
2019-02-10T06:54:11.708Z,0.30
2019-02-10T06:56:41.094Z,0.30
2019-02-10T06:59:20.666Z,0.30
2019-02-10T07:01:54.876Z,0.30
2019-02-10T07:04:29.462Z,0.30
2019-02-10T07:06:58.850Z,0.30
2019-02-10T07:09:28.252Z,0.40
2019-02-10T07:11:57.612Z,0.40
2019-02-10T07:14:32.434Z,0.30
2019-02-10T07:17:49.466Z,0.40
2019-02-10T07:20:42.974Z,0.40
2019-02-10T07:23:58.178Z,0.40
2019-02-10T07:27:00.754Z,0.40
2019-02-10T07:30:04.977Z,0.40
2019-02-10T07:32:41.429Z,0.50
2019-02-10T07:35:24.244Z,0.50
2019-02-10T07:38:25.958Z,0.50
2019-02-10T07:41:31.108Z,0.50
2019-02-10T07:44:43.090Z,0.50
2019-02-10T07:47:51.418Z,0.60
2019-02-10T07:51:00.602Z,0.60
2019-02-10T07:53:53.054Z,0.60
2019-02-10T07:57:14.110Z,0.70
2019-02-10T07:59:59.126Z,0.60
2019-02-10T08:03:21.790Z,0.70
2019-02-10T08:06:21.722Z,0.70
2019-02-10T08:09:34.009Z,0.70
2019-02-10T08:12:17.582Z,0.80
2019-02-10T08:15:12.198Z,0.80
2019-02-10T08:18:13.306Z,0.80
2019-02-10T08:21:20.441Z,0.80
2019-02-10T08:24:30.702Z,0.80
2019-02-10T08:27:42.467Z,0.80
2019-02-10T08:31:03.023Z,0.80
2019-02-10T08:34:03.095Z,0.90
2019-02-10T08:37:06.714Z,0.90
2019-02-10T08:40:20.646Z,1.00
2019-02-10T08:43:26.438Z,1.00
2019-02-10T08:46:39.946Z,1.00
2019-02-10T08:49:19.091Z,1.10
2019-02-10T08:52:11.971Z,1.10
2019-02-10T08:54:41.294Z,1.10
2019-02-10T08:57:10.698Z,1.10
2019-02-10T08:59:40.084Z,1.20
2019-02-10T09:02:09.485Z,1.20
2019-02-10T09:04:38.856Z,1.20
2019-02-10T09:07:08.282Z,1.30
2019-02-10T09:09:37.747Z,1.30
2019-02-10T09:12:07.066Z,1.30
2019-02-10T09:14:36.434Z,1.40
2019-02-10T09:17:05.774Z,1.50
2019-02-10T09:19:35.658Z,1.50
2019-02-10T09:22:05.042Z,1.50
2019-02-10T09:24:34.491Z,1.60
2019-02-10T09:27:03.851Z,1.60
2019-02-10T09:29:33.195Z,1.70
2019-02-10T09:32:02.538Z,1.70
2019-02-10T09:34:31.930Z,1.80
2019-02-10T09:37:01.326Z,1.80
2019-02-10T09:39:30.739Z,1.90
2019-02-10T09:42:00.139Z,1.90
2019-02-10T09:44:30.180Z,2.00
2019-02-10T09:46:59.908Z,2.00
2019-02-10T09:49:29.688Z,2.00
2019-02-10T09:51:59.063Z,2.00
2019-02-10T09:54:28.414Z,2.00
2019-02-10T09:56:57.822Z,2.10
2019-02-10T09:59:27.794Z,2.10
2019-02-10T10:01:57.126Z,2.10
2019-02-10T10:04:26.575Z,2.20
2019-02-10T10:06:55.967Z,2.10
2019-02-10T10:09:25.343Z,2.20
2019-02-10T10:11:54.743Z,2.20
2019-02-10T10:14:30.653Z,2.20
2019-02-10T10:16:55.132Z,2.30
2019-02-10T10:19:24.563Z,2.30
2019-02-10T10:21:54.222Z,2.40
2019-02-10T10:24:23.685Z,2.40
2019-02-10T10:26:53.220Z,2.50
2019-02-10T10:29:22.998Z,2.50
2019-02-10T10:31:52.710Z,2.60
2019-02-10T10:34:22.441Z,2.50
2019-02-10T10:36:51.883Z,2.60
2019-02-10T10:39:27.245Z,2.60
2019-02-10T10:41:52.547Z,2.70
2019-02-10T10:44:22.060Z,2.90
2019-02-10T10:46:51.535Z,2.90
2019-02-10T10:49:21.125Z,3.10
2019-02-10T10:51:50.597Z,3.10
2019-02-10T10:54:20.192Z,3.20
2019-02-10T10:56:49.724Z,3.30
2019-02-10T10:59:19.444Z,3.40
2019-02-10T11:01:48.941Z,3.40
2019-02-10T11:04:18.461Z,3.50
2019-02-10T11:06:48.084Z,3.60
2019-02-10T11:09:17.519Z,3.60
2019-02-10T11:11:47.206Z,3.70
2019-02-10T11:14:16.661Z,3.80
2019-02-10T11:16:46.123Z,3.90
2019-02-10T11:19:15.984Z,3.80
2019-02-10T11:21:45.519Z,3.90
2019-02-10T11:24:15.097Z,3.90
2019-02-10T11:26:44.646Z,4.00
2019-02-10T11:29:14.285Z,4.10
2019-02-10T11:31:43.803Z,4.10
2019-02-10T11:34:13.141Z,4.20
2019-02-10T11:36:42.693Z,4.30
2019-02-10T11:39:12.114Z,4.30
2019-02-10T11:41:41.620Z,4.40
2019-02-10T11:44:11.106Z,4.50
2019-02-10T11:46:40.685Z,4.70
2019-02-10T11:49:10.181Z,4.80
2019-02-10T11:51:41.228Z,4.90
2019-02-10T11:54:12.735Z,5.00
2019-02-10T11:56:41.891Z,5.00
2019-02-10T11:59:14.085Z,5.20
2019-02-10T12:01:43.554Z,5.20
2019-02-10T12:04:14.139Z,5.10
2019-02-10T12:06:43.581Z,5.10
2019-02-10T12:09:13.051Z,5.10
2019-02-10T12:11:42.523Z,5.10
2019-02-10T12:14:12.551Z,5.20
2019-02-10T12:16:41.973Z,5.20
2019-02-10T12:19:11.300Z,5.30
2019-02-10T12:21:41.216Z,5.40
2019-02-10T12:24:10.593Z,5.50
2019-02-10T12:26:39.990Z,5.50
2019-02-10T12:29:09.369Z,5.50
2019-02-10T12:31:40.079Z,5.50
2019-02-10T12:34:09.453Z,5.60
2019-02-10T12:36:39.569Z,5.70
2019-02-10T12:39:09.333Z,5.70
2019-02-10T12:41:38.705Z,5.90
2019-02-10T12:44:08.269Z,6.00
2019-02-10T12:46:37.945Z,6.10
2019-02-10T12:49:07.745Z,6.20
2019-02-10T12:51:37.215Z,6.30
2019-02-10T12:54:06.649Z,6.40
2019-02-10T12:56:36.029Z,6.50
2019-02-10T12:59:05.563Z,6.60
2019-02-10T13:01:34.965Z,6.70
2019-02-10T13:04:04.375Z,6.80
2019-02-10T13:06:33.766Z,7.00
2019-02-10T13:09:03.105Z,7.10
2019-02-10T13:11:32.569Z,7.20
2019-02-10T13:14:02.017Z,7.20
2019-02-10T13:16:31.407Z,7.30
2019-02-10T13:19:00.839Z,7.30
2019-02-10T13:21:30.271Z,7.30
2019-02-10T13:23:59.831Z,7.30
2019-02-10T13:26:29.449Z,7.30
2019-02-10T13:28:58.823Z,7.30
2019-02-10T13:31:28.227Z,7.30
2019-02-10T13:33:57.672Z,7.30
2019-02-10T13:36:27.061Z,7.30
2019-02-10T13:38:56.513Z,7.40
2019-02-10T13:41:34.916Z,7.30
2019-02-10T13:44:05.033Z,7.30
2019-02-10T13:46:34.399Z,7.30
2019-02-10T13:49:03.733Z,7.20
2019-02-10T13:51:33.106Z,7.20
2019-02-10T13:54:02.586Z,7.20
2019-02-10T13:56:31.983Z,7.20
2019-02-10T13:59:01.437Z,7.20
2019-02-10T14:01:30.977Z,7.20
2019-02-10T14:04:00.404Z,7.20
2019-02-10T14:06:29.777Z,7.20
2019-02-10T14:08:59.403Z,7.30
2019-02-10T14:11:28.977Z,7.30
2019-02-10T14:13:58.333Z,7.30
2019-02-10T14:16:28.061Z,7.40
2019-02-10T14:18:57.510Z,7.50
2019-02-10T14:21:27.120Z,7.50
2019-02-10T14:23:56.908Z,7.50
2019-02-10T14:26:26.508Z,7.50
2019-02-10T14:28:56.059Z,7.60
2019-02-10T14:31:25.599Z,7.50
2019-02-10T14:33:55.053Z,7.50
2019-02-10T14:36:24.549Z,7.50
2019-02-10T14:38:54.087Z,7.50
2019-02-10T14:41:23.561Z,7.40
2019-02-10T14:43:52.957Z,7.30
2019-02-10T14:46:22.476Z,7.30
2019-02-10T14:48:52.003Z,7.20
2019-02-10T14:51:21.384Z,7.20
2019-02-10T14:53:51.053Z,7.10
2019-02-10T14:56:20.603Z,7.10
2019-02-10T14:58:50.252Z,7.10
2019-02-10T15:01:19.744Z,7.00
2019-02-10T15:03:49.223Z,7.10
2019-02-10T15:06:18.651Z,7.00
2019-02-10T15:08:48.226Z,7.00
2019-02-10T15:11:17.552Z,6.90
2019-02-10T15:13:47.003Z,6.90
2019-02-10T15:16:16.415Z,6.80
2019-02-10T15:18:45.849Z,6.80
2019-02-10T15:21:15.177Z,6.70
2019-02-10T15:23:45.614Z,6.70
2019-02-10T15:26:15.205Z,6.70
2019-02-10T15:28:44.683Z,6.60
2019-02-10T15:31:14.209Z,6.60
2019-02-10T15:33:45.060Z,6.50
2019-02-10T15:36:14.636Z,6.40
2019-02-10T15:38:44.067Z,6.40
2019-02-10T15:41:13.585Z,6.30
2019-02-10T15:43:43.270Z,6.20
2019-02-10T15:46:13.072Z,6.20
2019-02-10T15:48:42.497Z,6.10
2019-02-10T15:51:12.017Z,6.00
2019-02-10T15:53:41.543Z,5.90
2019-02-10T15:56:11.078Z,5.80
2019-02-10T15:58:40.613Z,5.80
2019-02-10T16:01:10.271Z,5.60
2019-02-10T16:03:39.663Z,5.50
2019-02-10T16:06:09.050Z,5.40
2019-02-10T16:08:38.427Z,5.40
2019-02-10T16:11:07.724Z,5.30
2019-02-10T16:13:37.087Z,5.30
2019-02-10T16:16:06.478Z,5.20
2019-02-10T16:18:35.837Z,5.10
2019-02-10T16:21:05.236Z,5.10
2019-02-10T16:23:34.702Z,5.10
2019-02-10T16:26:04.261Z,5.00
2019-02-10T16:28:33.919Z,5.00
2019-02-10T16:31:03.289Z,4.90
2019-02-10T16:33:32.664Z,4.90
2019-02-10T16:36:02.135Z,4.80
2019-02-10T16:38:31.623Z,4.70
2019-02-10T16:41:06.259Z,4.70
2019-02-10T16:43:32.232Z,4.60
2019-02-10T16:46:01.784Z,4.60
2019-02-10T16:48:31.234Z,4.50
2019-02-10T16:51:00.630Z,4.50
2019-02-10T16:53:30.183Z,4.40
2019-02-10T16:55:59.750Z,4.30
2019-02-10T16:58:29.182Z,4.30
2019-02-10T17:00:58.847Z,4.20
2019-02-10T17:03:28.200Z,4.20
2019-02-10T17:05:57.555Z,4.10
2019-02-10T17:08:27.079Z,4.10
2019-02-10T17:10:56.510Z,4.00
2019-02-10T17:13:26.002Z,3.90
2019-02-10T17:15:55.529Z,3.70
2019-02-10T17:18:24.890Z,3.70
2019-02-10T17:20:54.279Z,3.50
2019-02-10T17:23:23.859Z,3.50
2019-02-10T17:25:53.411Z,3.50
2019-02-10T17:28:22.882Z,3.40
2019-02-10T17:30:52.277Z,3.30
2019-02-10T17:33:21.804Z,3.30
2019-02-10T17:35:51.251Z,3.20
2019-02-10T17:41:03.068Z,3.10
2019-02-10T17:43:32.566Z,3.10
2019-02-10T17:46:02.039Z,3.10
2019-02-10T17:48:31.429Z,3.10
2019-02-10T17:51:00.814Z,3.10
2019-02-10T17:53:30.417Z,3.00
2019-02-10T17:56:00.050Z,3.00
2019-02-10T17:58:29.579Z,3.00
2019-02-10T18:00:59.063Z,2.90
2019-02-10T18:03:28.553Z,2.90
2019-02-10T18:05:58.045Z,2.90
2019-02-10T18:08:27.433Z,2.90
2019-02-10T18:10:56.829Z,2.80
2019-02-10T18:13:28.173Z,2.80
2019-02-10T18:16:15.169Z,2.80
2019-02-10T18:19:02.986Z,2.80
2019-02-10T18:21:54.469Z,2.80
2019-02-10T18:24:41.461Z,2.70
2019-02-10T18:27:32.814Z,2.70
2019-02-10T18:30:33.290Z,2.70
2019-02-10T18:33:24.619Z,2.70
2019-02-10T18:36:09.863Z,2.70
2019-02-10T18:39:04.173Z,2.70
2019-02-10T18:41:51.636Z,2.70
2019-02-10T18:44:49.253Z,2.70
2019-02-10T18:47:46.595Z,2.70
2019-02-10T18:50:38.970Z,2.70
2019-02-10T18:53:20.741Z,2.60
2019-02-10T18:56:18.414Z,2.60
2019-02-10T18:59:00.042Z,2.60
2019-02-10T19:01:48.457Z,2.70
2019-02-10T19:04:28.021Z,2.60
2019-02-10T19:07:25.283Z,2.60
2019-02-10T19:10:16.650Z,2.70
2019-02-10T19:13:16.886Z,2.60
2019-02-10T19:16:20.434Z,2.60
2019-02-10T19:19:11.850Z,2.60
2019-02-10T19:21:48.405Z,2.60
2019-02-10T19:24:35.692Z,2.60
2019-02-10T19:27:12.305Z,2.60
2019-02-10T19:30:03.814Z,2.60
2019-02-10T19:32:58.133Z,2.60
2019-02-10T19:35:55.817Z,2.60
2019-02-10T19:38:47.187Z,2.60
2019-02-10T19:41:27.470Z,2.60
2019-02-10T19:44:18.878Z,2.60
2019-02-10T19:47:25.730Z,2.60
2019-02-10T19:50:17.054Z,2.60
2019-02-10T19:52:57.991Z,2.60
2019-02-10T19:55:55.566Z,2.60
2019-02-10T19:58:52.863Z,2.70
2019-02-10T20:01:41.350Z,2.60
2019-02-10T20:04:38.764Z,2.60
2019-02-10T20:07:26.077Z,2.70
2019-02-10T20:10:04.777Z,2.70
2019-02-10T20:12:45.997Z,2.70
2019-02-10T20:15:34.517Z,2.70
2019-02-10T20:18:21.774Z,2.70
2019-02-10T20:21:07.109Z,2.70
2019-02-10T20:23:46.475Z,2.70
2019-02-10T20:26:33.786Z,2.70
2019-02-10T20:29:15.623Z,2.70
2019-02-10T20:32:04.121Z,2.70
2019-02-10T20:34:55.619Z,2.80
2019-02-10T20:37:49.822Z,2.70
2019-02-10T20:40:24.838Z,2.80
2019-02-10T20:43:12.891Z,2.80
2019-02-10T20:45:54.187Z,2.80
2019-02-10T20:48:37.418Z,2.80
2019-02-10T20:51:23.677Z,2.90
2019-02-10T20:54:08.979Z,2.90
2019-02-10T20:57:00.299Z,2.90
2019-02-10T20:59:54.605Z,2.90
2019-02-10T21:02:31.038Z,3.00
2019-02-10T21:05:07.447Z,3.00
2019-02-10T21:07:56.049Z,3.00
2019-02-10T21:10:47.374Z,3.00
2019-02-10T21:13:36.675Z,3.00
2019-02-10T21:16:25.038Z,3.10
2019-02-10T21:19:19.749Z,3.10
2019-02-10T21:22:11.018Z,3.10
2019-02-10T21:24:53.902Z,3.10
2019-02-10T21:27:42.283Z,3.20
2019-02-10T21:30:33.951Z,3.20
2019-02-10T21:33:22.425Z,3.20
2019-02-10T21:36:03.580Z,3.20
2019-02-10T21:38:51.926Z,3.20
2019-02-10T21:41:40.283Z,3.20
2019-02-10T21:44:27.421Z,3.20
2019-02-10T21:47:15.677Z,3.20
2019-02-10T21:49:45.124Z,3.30
2019-02-10T21:52:14.493Z,3.30
2019-02-10T21:54:43.864Z,3.30
2019-02-10T21:57:13.177Z,3.30
2019-02-10T21:59:42.557Z,3.30
2019-02-10T22:02:11.934Z,3.40
2019-02-10T22:04:41.288Z,3.40
2019-02-10T22:07:10.676Z,3.70
2019-02-10T22:09:40.022Z,4.20
2019-02-10T22:12:09.434Z,4.50
2019-02-10T22:14:38.791Z,4.60
2019-02-10T22:17:08.112Z,4.80
2019-02-10T22:19:39.382Z,4.80
2019-02-10T22:22:08.901Z,4.80
2019-02-10T22:24:41.216Z,4.80
2019-02-10T22:27:10.646Z,4.70
2019-02-10T22:29:40.072Z,4.60
2019-02-10T22:32:09.524Z,4.60
2019-02-10T22:34:38.962Z,4.50
2019-02-10T22:37:08.434Z,4.50
2019-02-10T22:39:37.769Z,4.50
2019-02-10T22:42:07.195Z,4.40
2019-02-10T22:44:36.538Z,4.40
2019-02-10T22:47:05.974Z,4.40
2019-02-10T22:49:35.313Z,4.30
2019-02-10T22:52:04.756Z,4.30
2019-02-10T22:54:34.078Z,4.30
2019-02-10T22:57:03.458Z,4.30
2019-02-10T22:59:32.773Z,4.30
2019-02-10T23:02:03.010Z,4.30
2019-02-10T23:04:32.354Z,4.20
2019-02-10T23:07:02.814Z,4.30
2019-02-10T23:09:32.121Z,4.30
2019-02-10T23:12:02.550Z,4.30
2019-02-10T23:14:31.862Z,4.30
2019-02-10T23:17:04.978Z,4.40
2019-02-10T23:19:34.298Z,4.50
2019-02-10T23:22:03.874Z,4.60
2019-02-10T23:24:33.170Z,4.60
2019-02-10T23:27:03.598Z,4.70
2019-02-10T23:29:33.062Z,4.70
2019-02-10T23:32:02.988Z,4.70
2019-02-10T23:34:32.308Z,4.90
2019-02-10T23:37:02.906Z,5.00
2019-02-10T23:39:32.306Z,5.10
2019-02-10T23:42:02.547Z,5.20
2019-02-10T23:44:32.102Z,5.30
2019-02-10T23:47:02.790Z,5.40
2019-02-10T23:49:32.114Z,5.50
2019-02-10T23:52:03.050Z,5.60
2019-02-10T23:54:32.440Z,5.80
2019-02-10T23:57:02.908Z,5.90
2019-02-10T23:59:32.246Z,5.90
